sensor_id;sensor_type;location;lat;lon;timestamp;pressure;altitude;pressure_sealevel;temperature;humidity
48778;BME280;34578;0.000;0.000;2023-07-29T00:02:56;96286.25;;;20.15;64.31
48778;BME280;34578;0.000;0.000;2023-07-29T00:07:56;96283.84;;;20.07;64.74
48778;BME280;34578;0.000;0.000;2023-07-29T00:12:57;96263.53;;;20.03;63.94
48778;BME280;34578;0.000;0.000;2023-07-29T00:17:57;96258.50;;;20.00;63.81
48778;BME280;34578;0.000;0.000;2023-07-29T00:22:57;96250.88;;;19.98;63.48
48778;BME280;34578;0.000;0.000;2023-07-29T00:27:59;96256.84;;;19.96;63.18
48778;BME280;34578;0.000;0.000;2023-07-29T00:32:59;96250.19;;;19.87;62.91
48778;BME280;34578;0.000;0.000;2023-07-29T00:37:59;96252.56;;;19.98;63.49
48778;BME280;34578;0.000;0.000;2023-07-29T00:43:00;96257.44;;;20.16;66.63
48778;BME280;34578;0.000;0.000;2023-07-29T00:48:02;96248.06;;;20.19;66.18
48778;BME280;34578;0.000;0.000;2023-07-29T00:53:03;96236.28;;;20.15;64.08
48778;BME280;34578;0.000;0.000;2023-07-29T00:58:04;96233.88;;;20.08;64.29
48778;BME280;34578;0.000;0.000;2023-07-29T01:03:08;96235.59;;;20.03;63.81
48778;BME280;34578;0.000;0.000;2023-07-29T01:08:21;96230.56;;;20.00;63.29
48778;BME280;34578;0.000;0.000;2023-07-29T01:18:47;96221.28;;;19.94;62.96
48778;BME280;34578;0.000;0.000;2023-07-29T01:23:52;96218.72;;;19.96;62.90
48778;BME280;34578;0.000;0.000;2023-07-29T01:28:52;96220.38;;;20.00;64.02
48778;BME280;34578;0.000;0.000;2023-07-29T01:34:01;96210.00;;;20.15;66.05
48778;BME280;34578;0.000;0.000;2023-07-29T01:39:02;96212.50;;;20.19;66.15
48778;BME280;34578;0.000;0.000;2023-07-29T01:44:04;96213.41;;;20.14;64.32
48778;BME280;34578;0.000;0.000;2023-07-29T01:49:05;96214.38;;;20.07;64.06
48778;BME280;34578;0.000;0.000;2023-07-29T01:54:06;96209.31;;;20.02;63.59
48778;BME280;34578;0.000;0.000;2023-07-29T01:59:06;96217.84;;;20.00;63.46
48778;BME280;34578;0.000;0.000;2023-07-29T02:04:06;96223.75;;;19.99;63.27
48778;BME280;34578;0.000;0.000;2023-07-29T02:09:07;96218.72;;;19.97;62.83
48778;BME280;34578;0.000;0.000;2023-07-29T02:14:08;96213.66;;;19.96;63.02
48778;BME280;34578;0.000;0.000;2023-07-29T02:19:08;96208.56;;;19.97;63.20
48778;BME280;34578;0.000;0.000;2023-07-29T02:24:08;96212.59;;;20.13;66.16
48778;BME280;34578;0.000;0.000;2023-07-29T02:29:09;96216.75;;;20.19;65.10
48778;BME280;34578;0.000;0.000;2023-07-29T02:34:09;96220.19;;;20.15;63.69
48778;BME280;34578;0.000;0.000;2023-07-29T02:39:10;96218.63;;;20.08;64.18
48778;BME280;34578;0.000;0.000;2023-07-29T02:44:10;96225.41;;;20.03;63.57
48778;BME280;34578;0.000;0.000;2023-07-29T02:49:11;96211.03;;;20.00;63.15
48778;BME280;34578;0.000;0.000;2023-07-29T02:54:11;96207.69;;;20.00;63.05
48778;BME280;34578;0.000;0.000;2023-07-29T02:59:11;96201.81;;;19.93;62.93
48778;BME280;34578;0.000;0.000;2023-07-29T03:04:12;96204.34;;;19.95;62.49
48778;BME280;34578;0.000;0.000;2023-07-29T03:09:13;96195.00;;;19.97;63.29
48778;BME280;34578;0.000;0.000;2023-07-29T03:14:14;96199.03;;;20.14;65.57
48778;BME280;34578;0.000;0.000;2023-07-29T03:19:15;96199.78;;;20.19;65.68
48778;BME280;34578;0.000;0.000;2023-07-29T03:24:15;96184.59;;;20.15;64.26
48778;BME280;34578;0.000;0.000;2023-07-29T03:29:15;96176.25;;;20.07;64.33
48778;BME280;34578;0.000;0.000;2023-07-29T03:34:16;96179.69;;;20.03;63.66
48778;BME280;34578;0.000;0.000;2023-07-29T03:39:22;96176.31;;;20.01;63.38
48778;BME280;34578;0.000;0.000;2023-07-29T03:44:25;96156.09;;;19.95;63.06
48778;BME280;34578;0.000;0.000;2023-07-29T03:49:25;96173.81;;;19.98;63.04
48778;BME280;34578;0.000;0.000;2023-07-29T03:54:26;96174.66;;;19.98;62.74
48778;BME280;34578;0.000;0.000;2023-07-29T03:59:26;96167.84;;;19.99;62.76
48778;BME280;34578;0.000;0.000;2023-07-29T04:04:27;96176.16;;;20.14;65.59
48778;BME280;34578;0.000;0.000;2023-07-29T04:09:27;96176.09;;;20.19;65.79
48778;BME280;34578;0.000;0.000;2023-07-29T04:14:28;96169.34;;;20.15;63.87
48778;BME280;34578;0.000;0.000;2023-07-29T04:19:28;96165.19;;;20.09;64.19
48778;BME280;34578;0.000;0.000;2023-07-29T04:24:29;96171.16;;;20.07;63.39
48778;BME280;34578;0.000;0.000;2023-07-29T04:29:29;96185.59;;;20.05;63.36
48778;BME280;34578;0.000;0.000;2023-07-29T04:34:30;96187.34;;;20.00;63.03
48778;BME280;34578;0.000;0.000;2023-07-29T04:39:30;96189.81;;;20.06;64.61
48778;BME280;34578;0.000;0.000;2023-07-29T04:44:31;96203.41;;;20.02;67.86
48778;BME280;34578;0.000;0.000;2023-07-29T04:49:31;96194.13;;;19.99;69.91
48778;BME280;34578;0.000;0.000;2023-07-29T04:54:31;96196.56;;;20.07;71.20
48778;BME280;34578;0.000;0.000;2023-07-29T04:59:32;96214.34;;;20.10;71.77
48778;BME280;34578;0.000;0.000;2023-07-29T05:04:32;96202.50;;;20.09;72.59
48778;BME280;34578;0.000;0.000;2023-07-29T05:09:33;96213.53;;;20.08;73.07
48778;BME280;34578;0.000;0.000;2023-07-29T05:14:33;96199.16;;;20.02;70.83
48778;BME280;34578;0.000;0.000;2023-07-29T05:19:34;96208.47;;;20.06;73.20
48778;BME280;34578;0.000;0.000;2023-07-29T05:24:37;96213.59;;;19.99;74.63
48778;BME280;34578;0.000;0.000;2023-07-29T05:29:37;96208.56;;;19.96;74.21
48778;BME280;34578;0.000;0.000;2023-07-29T05:34:38;96204.31;;;19.98;74.67
48778;BME280;34578;0.000;0.000;2023-07-29T05:39:38;96226.28;;;20.00;73.65
48778;BME280;34578;0.000;0.000;2023-07-29T05:44:38;96228.78;;;20.08;74.86
48778;BME280;34578;0.000;0.000;2023-07-29T05:49:39;96218.56;;;20.11;75.85
48778;BME280;34578;0.000;0.000;2023-07-29T05:54:41;96223.63;;;20.11;75.90
48778;BME280;34578;0.000;0.000;2023-07-29T05:59:42;96230.50;;;20.03;75.21
48778;BME280;34578;0.000;0.000;2023-07-29T06:04:43;96238.94;;;20.08;76.36
48778;BME280;34578;0.000;0.000;2023-07-29T06:09:43;96236.41;;;20.06;72.27
48778;BME280;34578;0.000;0.000;2023-07-29T06:14:44;96238.03;;;20.10;75.91
48778;BME280;34578;0.000;0.000;2023-07-29T06:19:44;96239.75;;;20.10;72.54
48778;BME280;34578;0.000;0.000;2023-07-29T06:24:44;96233.88;;;20.08;69.14
48778;BME280;34578;0.000;0.000;2023-07-29T06:29:45;96233.03;;;20.06;68.28
48778;BME280;34578;0.000;0.000;2023-07-29T06:34:45;96213.53;;;20.08;70.10
48778;BME280;34578;0.000;0.000;2023-07-29T06:39:45;96204.03;;;20.19;72.89
48778;BME280;34578;0.000;0.000;2023-07-29T06:44:46;96204.75;;;20.27;72.31
48778;BME280;34578;0.000;0.000;2023-07-29T06:49:46;96237.09;;;20.19;69.73
48778;BME280;34578;0.000;0.000;2023-07-29T06:54:47;96261.50;;;20.27;75.43
48778;BME280;34578;0.000;0.000;2023-07-29T06:59:47;96270.13;;;20.17;72.25
48778;BME280;34578;0.000;0.000;2023-07-29T07:04:48;96253.97;;;20.23;75.58
48778;BME280;34578;0.000;0.000;2023-07-29T07:09:48;96272.53;;;20.29;74.47
48778;BME280;34578;0.000;0.000;2023-07-29T07:14:49;96269.13;;;20.29;74.69
48778;BME280;34578;0.000;0.000;2023-07-29T07:19:49;96269.28;;;20.18;71.78
48778;BME280;34578;0.000;0.000;2023-07-29T07:24:50;96254.88;;;20.19;73.40
48778;BME280;34578;0.000;0.000;2023-07-29T07:29:50;96260.63;;;20.30;74.30
48778;BME280;34578;0.000;0.000;2023-07-29T07:34:51;96256.44;;;20.27;73.68
48778;BME280;34578;0.000;0.000;2023-07-29T07:39:51;96266.56;;;20.30;74.53
48778;BME280;34578;0.000;0.000;2023-07-29T07:44:51;96257.28;;;20.26;74.57
48778;BME280;34578;0.000;0.000;2023-07-29T07:49:52;96256.50;;;20.23;73.09
48778;BME280;34578;0.000;0.000;2023-07-29T07:54:53;96250.53;;;20.24;73.30
48778;BME280;34578;0.000;0.000;2023-07-29T07:59:53;96256.53;;;20.21;71.67
48778;BME280;34578;0.000;0.000;2023-07-29T08:04:54;96265.78;;;20.27;73.53
48778;BME280;34578;0.000;0.000;2023-07-29T08:09:54;96252.19;;;20.28;73.11
48778;BME280;34578;0.000;0.000;2023-07-29T08:14:54;96262.22;;;20.37;73.26
48778;BME280;34578;0.000;0.000;2023-07-29T08:19:55;96257.09;;;20.39;73.90
48778;BME280;34578;0.000;0.000;2023-07-29T08:24:55;96261.94;;;20.54;72.44
48778;BME280;34578;0.000;0.000;2023-07-29T08:29:55;96264.63;;;20.47;73.99
48778;BME280;34578;0.000;0.000;2023-07-29T08:34:56;96259.69;;;20.35;72.22
48778;BME280;34578;0.000;0.000;2023-07-29T08:39:56;96262.34;;;20.29;72.06
48778;BME280;34578;0.000;0.000;2023-07-29T08:45:01;96274.09;;;20.38;74.62
48778;BME280;34578;0.000;0.000;2023-07-29T08:50:06;96267.31;;;20.37;73.91
48778;BME280;34578;0.000;0.000;2023-07-29T08:55:07;96274.09;;;20.38;73.00
48778;BME280;34578;0.000;0.000;2023-07-29T09:00:08;96273.34;;;20.28;71.14
48778;BME280;34578;0.000;0.000;2023-07-29T09:05:09;96281.06;;;20.24;71.79
48778;BME280;34578;0.000;0.000;2023-07-29T09:10:09;96275.06;;;20.29;72.94
48778;BME280;34578;0.000;0.000;2023-07-29T09:15:13;96287.59;;;20.39;72.29
48778;BME280;34578;0.000;0.000;2023-07-29T09:20:29;96280.84;;;20.38;70.88
48778;BME280;34578;0.000;0.000;2023-07-29T09:25:29;96278.44;;;20.28;70.23
48778;BME280;34578;0.000;0.000;2023-07-29T09:30:30;96259.09;;;20.20;70.05
48778;BME280;34578;0.000;0.000;2023-07-29T09:35:35;96262.50;;;20.17;69.37
48778;BME280;34578;0.000;0.000;2023-07-29T09:40:37;96259.16;;;20.14;68.89
48778;BME280;34578;0.000;0.000;2023-07-29T09:45:38;96268.50;;;20.13;68.70
48778;BME280;34578;0.000;0.000;2023-07-29T09:50:38;96239.06;;;19.96;67.93
48778;BME280;34578;0.000;0.000;2023-07-29T09:55:39;96265.97;;;20.12;67.52
48778;BME280;34578;0.000;0.000;2023-07-29T10:00:39;96278.69;;;20.12;67.92
48778;BME280;34578;0.000;0.000;2023-07-29T10:05:40;96273.34;;;20.28;70.53
48778;BME280;34578;0.000;0.000;2023-07-29T10:10:42;96281.75;;;20.35;70.42
48778;BME280;34578;0.000;0.000;2023-07-29T10:15:44;96288.59;;;20.30;67.64
48778;BME280;34578;0.000;0.000;2023-07-29T10:20:47;96280.28;;;20.20;69.03
48778;BME280;34578;0.000;0.000;2023-07-29T10:26:02;96280.31;;;20.16;68.14
48778;BME280;34578;0.000;0.000;2023-07-29T10:31:04;96272.75;;;20.13;67.94
48778;BME280;34578;0.000;0.000;2023-07-29T10:36:05;96273.59;;;20.12;67.35
48778;BME280;34578;0.000;0.000;2023-07-29T10:41:05;96266.84;;;20.11;67.24
48778;BME280;34578;0.000;0.000;2023-07-29T10:46:19;96269.38;;;20.11;66.70
48778;BME280;34578;0.000;0.000;2023-07-29T10:56:26;96266.66;;;20.26;70.39
48778;BME280;34578;0.000;0.000;2023-07-29T11:01:29;96269.94;;;20.32;69.72
48778;BME280;34578;0.000;0.000;2023-07-29T11:06:29;96260.63;;;20.30;67.97
48778;BME280;34578;0.000;0.000;2023-07-29T11:11:30;96267.44;;;20.28;70.03
48778;BME280;34578;0.000;0.000;2023-07-29T11:16:30;96258.06;;;20.33;69.35
48778;BME280;34578;0.000;0.000;2023-07-29T11:21:32;96251.94;;;20.45;71.11
48778;BME280;34578;0.000;0.000;2023-07-29T11:26:37;96253.88;;;20.29;69.72
48778;BME280;34578;0.000;0.000;2023-07-29T11:31:40;96249.66;;;20.26;69.16
48778;BME280;34578;0.000;0.000;2023-07-29T11:36:47;96250.59;;;20.21;69.13
48778;BME280;34578;0.000;0.000;2023-07-29T11:41:47;96249.66;;;20.28;70.37
48778;BME280;34578;0.000;0.000;2023-07-29T11:46:48;96248.78;;;20.29;70.32
48778;BME280;34578;0.000;0.000;2023-07-29T11:51:49;96255.34;;;20.44;70.48
48778;BME280;34578;0.000;0.000;2023-07-29T11:56:50;96253.59;;;20.46;69.52
48778;BME280;34578;0.000;0.000;2023-07-29T12:01:51;96242.84;;;20.28;68.79
48778;BME280;34578;0.000;0.000;2023-07-29T12:06:51;96237.88;;;20.22;67.94
48778;BME280;34578;0.000;0.000;2023-07-29T12:11:52;96238.75;;;20.20;66.73
48778;BME280;34578;0.000;0.000;2023-07-29T12:16:53;96243.69;;;20.30;69.77
48778;BME280;34578;0.000;0.000;2023-07-29T12:21:54;96231.72;;;20.37;69.92
48778;BME280;34578;0.000;0.000;2023-07-29T12:26:55;96244.44;;;20.38;66.96
48778;BME280;34578;0.000;0.000;2023-07-29T12:32:00;96230.09;;;20.33;65.26
48778;BME280;34578;0.000;0.000;2023-07-29T12:37:02;96238.56;;;20.32;65.30
48778;BME280;34578;0.000;0.000;2023-07-29T12:42:03;96251.25;;;20.35;65.15
48778;BME280;34578;0.000;0.000;2023-07-29T12:47:05;96260.56;;;20.36;64.92
48778;BME280;34578;0.000;0.000;2023-07-29T12:52:06;96251.09;;;20.45;68.71
48778;BME280;34578;0.000;0.000;2023-07-29T12:57:07;96253.59;;;20.46;69.13
48778;BME280;34578;0.000;0.000;2023-07-29T13:02:07;96258.75;;;20.43;65.51
48778;BME280;34578;0.000;0.000;2023-07-29T13:07:07;96249.47;;;20.39;65.10
48778;BME280;34578;0.000;0.000;2023-07-29T13:12:08;96273.22;;;20.38;65.24
48778;BME280;34578;0.000;0.000;2023-07-29T13:17:08;96260.50;;;20.38;65.96
48778;BME280;34578;0.000;0.000;2023-07-29T13:22:09;96267.41;;;20.31;65.73
48778;BME280;34578;0.000;0.000;2023-07-29T13:27:09;96283.25;;;20.49;69.21
48778;BME280;34578;0.000;0.000;2023-07-29T13:32:09;96278.94;;;20.52;68.65
48778;BME280;34578;0.000;0.000;2023-07-29T13:37:10;96276.50;;;20.46;65.51
48778;BME280;34578;0.000;0.000;2023-07-29T13:42:10;96268.91;;;20.43;65.70
48778;BME280;34578;0.000;0.000;2023-07-29T13:47:10;96285.03;;;20.42;65.46
48778;BME280;34578;0.000;0.000;2023-07-29T13:52:13;96279.09;;;20.40;65.77
48778;BME280;34578;0.000;0.000;2023-07-29T13:57:13;96282.53;;;20.39;65.91
48778;BME280;34578;0.000;0.000;2023-07-29T14:02:14;96277.28;;;20.48;69.47
48778;BME280;34578;0.000;0.000;2023-07-29T14:07:14;96292.47;;;20.54;69.52
48778;BME280;34578;0.000;0.000;2023-07-29T14:12:14;96266.41;;;20.40;66.16
48778;BME280;34578;0.000;0.000;2023-07-29T14:17:15;96279.94;;;20.42;66.07
48778;BME280;34578;0.000;0.000;2023-07-29T14:22:16;96287.59;;;20.39;65.37
48778;BME280;34578;0.000;0.000;2023-07-29T14:27:16;96307.09;;;20.40;66.91
48778;BME280;34578;0.000;0.000;2023-07-29T14:32:17;96323.25;;;20.37;65.74
48778;BME280;34578;0.000;0.000;2023-07-29T14:37:17;96323.19;;;20.42;68.23
48778;BME280;34578;0.000;0.000;2023-07-29T14:42:17;96304.53;;;20.40;68.80
48778;BME280;34578;0.000;0.000;2023-07-29T14:47:18;96317.97;;;20.48;67.52
48778;BME280;34578;0.000;0.000;2023-07-29T14:52:18;96316.41;;;20.42;65.79
48778;BME280;34578;0.000;0.000;2023-07-29T14:57:18;96319.03;;;20.36;65.10
48778;BME280;34578;0.000;0.000;2023-07-29T15:02:19;96321.63;;;20.33;65.07
48778;BME280;34578;0.000;0.000;2023-07-29T15:07:19;96316.56;;;20.30;64.85
48778;BME280;34578;0.000;0.000;2023-07-29T15:12:20;96316.56;;;20.30;64.83
48778;BME280;34578;0.000;0.000;2023-07-29T15:17:20;96303.66;;;20.43;68.97
48778;BME280;34578;0.000;0.000;2023-07-29T15:22:20;96312.03;;;20.51;67.49
48778;BME280;34578;0.000;0.000;2023-07-29T15:27:21;96299.44;;;20.43;66.49
48778;BME280;34578;0.000;0.000;2023-07-29T15:32:22;96305.47;;;20.37;65.48
48778;BME280;34578;0.000;0.000;2023-07-29T15:37:25;96306.38;;;20.33;65.06
48778;BME280;34578;0.000;0.000;2023-07-29T15:42:26;96303.00;;;20.31;64.70
48778;BME280;34578;0.000;0.000;2023-07-29T15:47:26;96286.06;;;20.30;64.56
48778;BME280;34578;0.000;0.000;2023-07-29T15:52:27;96281.78;;;20.33;66.73
48778;BME280;34578;0.000;0.000;2023-07-29T15:57:29;96283.25;;;20.49;69.01
48778;BME280;34578;0.000;0.000;2023-07-29T16:02:29;96276.41;;;20.52;66.45
48778;BME280;34578;0.000;0.000;2023-07-29T16:07:30;96285.06;;;20.41;65.91
48778;BME280;34578;0.000;0.000;2023-07-29T16:12:30;96282.63;;;20.34;64.83
48778;BME280;34578;0.000;0.000;2023-07-29T16:17:35;96270.81;;;20.28;64.42
48778;BME280;34578;0.000;0.000;2023-07-29T16:22:35;96270.81;;;20.30;64.48
48778;BME280;34578;0.000;0.000;2023-07-29T16:27:36;96272.53;;;20.29;64.82
48778;BME280;34578;0.000;0.000;2023-07-29T16:32:36;96274.88;;;20.41;67.63
48778;BME280;34578;0.000;0.000;2023-07-29T16:37:36;96275.59;;;20.50;68.80
48778;BME280;34578;0.000;0.000;2023-07-29T16:42:40;96283.22;;;20.50;65.84
48778;BME280;34578;0.000;0.000;2023-07-29T16:47:40;96274.88;;;20.39;65.48
48778;BME280;34578;0.000;0.000;2023-07-29T16:52:41;96286.00;;;20.34;64.88
48778;BME280;34578;0.000;0.000;2023-07-29T16:57:41;96294.50;;;20.32;64.64
48778;BME280;34578;0.000;0.000;2023-07-29T17:02:41;96297.91;;;20.31;64.56
48778;BME280;34578;0.000;0.000;2023-07-29T17:07:42;96291.19;;;20.27;64.58
48778;BME280;34578;0.000;0.000;2023-07-29T17:12:42;96300.28;;;20.42;67.24
48778;BME280;34578;0.000;0.000;2023-07-29T17:17:45;96302.69;;;20.51;68.76
48778;BME280;34578;0.000;0.000;2023-07-29T17:22:45;96306.13;;;20.50;66.14
48778;BME280;34578;0.000;0.000;2023-07-29T17:27:46;96298.63;;;20.40;65.18
48778;BME280;34578;0.000;0.000;2023-07-29T17:32:46;96291.13;;;20.33;64.77
48778;BME280;34578;0.000;0.000;2023-07-29T17:37:47;96302.16;;;20.30;64.53
48778;BME280;34578;0.000;0.000;2023-07-29T17:42:47;96297.16;;;20.24;64.65
48778;BME280;34578;0.000;0.000;2023-07-29T17:47:47;96301.31;;;20.30;64.70
48778;BME280;34578;0.000;0.000;2023-07-29T17:52:48;96302.84;;;20.42;68.66
48778;BME280;34578;0.000;0.000;2023-07-29T17:57:50;96309.47;;;20.52;68.07
48778;BME280;34578;0.000;0.000;2023-07-29T18:02:50;96285.84;;;20.44;65.64
48778;BME280;34578;0.000;0.000;2023-07-29T18:07:52;96294.38;;;20.40;65.54
48778;BME280;34578;0.000;0.000;2023-07-29T18:12:53;96295.34;;;20.32;64.61
48778;BME280;34578;0.000;0.000;2023-07-29T18:17:53;96300.50;;;20.29;64.67
48778;BME280;34578;0.000;0.000;2023-07-29T18:22:54;96303.84;;;20.30;64.47
48778;BME280;34578;0.000;0.000;2023-07-29T18:27:55;96296.28;;;20.27;64.18
48778;BME280;34578;0.000;0.000;2023-07-29T18:32:56;96296.06;;;20.42;66.99
48778;BME280;34578;0.000;0.000;2023-07-29T18:37:56;96273.16;;;20.43;68.16
48778;BME280;34578;0.000;0.000;2023-07-29T18:42:59;96285.78;;;20.50;66.05
48778;BME280;34578;0.000;0.000;2023-07-29T18:48:00;96294.38;;;20.40;65.35
48778;BME280;34578;0.000;0.000;2023-07-29T18:53:00;96286.03;;;20.33;64.58
48778;BME280;34578;0.000;0.000;2023-07-29T18:58:00;96295.41;;;20.29;64.19
48778;BME280;34578;0.000;0.000;2023-07-29T19:03:01;96300.50;;;20.29;64.39
48778;BME280;34578;0.000;0.000;2023-07-29T19:08:01;96295.41;;;20.28;64.25
48778;BME280;34578;0.000;0.000;2023-07-29T19:13:02;96296.97;;;20.36;66.75
48778;BME280;34578;0.000;0.000;2023-07-29T19:18:03;96301.84;;;20.52;68.41
48778;BME280;34578;0.000;0.000;2023-07-29T19:23:03;96305.19;;;20.53;66.73
48778;BME280;34578;0.000;0.000;2023-07-29T19:28:04;96301.97;;;20.45;65.78
48778;BME280;34578;0.000;0.000;2023-07-29T19:33:04;96300.31;;;20.39;64.99
48778;BME280;34578;0.000;0.000;2023-07-29T19:38:04;96303.84;;;20.33;64.57
48778;BME280;34578;0.000;0.000;2023-07-29T19:43:05;96297.09;;;20.30;64.41
48778;BME280;34578;0.000;0.000;2023-07-29T19:48:05;96298.78;;;20.30;64.22
48778;BME280;34578;0.000;0.000;2023-07-29T19:53:06;96276.81;;;20.24;64.34
48778;BME280;34578;0.000;0.000;2023-07-29T19:58:07;96296.81;;;20.48;68.74
48778;BME280;34578;0.000;0.000;2023-07-29T20:03:07;96303.50;;;20.55;66.46
48778;BME280;34578;0.000;0.000;2023-07-29T20:08:07;96313.00;;;20.42;66.69
48778;BME280;34578;0.000;0.000;2023-07-29T20:13:08;96304.53;;;20.40;64.95
48778;BME280;34578;0.000;0.000;2023-07-29T20:18:08;96314.75;;;20.38;64.46
48778;BME280;34578;0.000;0.000;2023-07-29T20:23:08;96330.88;;;20.35;64.33
48778;BME280;34578;0.000;0.000;2023-07-29T20:28:09;96325.00;;;20.33;64.25
48778;BME280;34578;0.000;0.000;2023-07-29T20:33:09;96306.41;;;20.30;64.14
48778;BME280;34578;0.000;0.000;2023-07-29T20:38:10;96318.03;;;20.45;68.56
48778;BME280;34578;0.000;0.000;2023-07-29T20:43:12;96317.91;;;20.54;69.17
48778;BME280;34578;0.000;0.000;2023-07-29T20:48:12;96327.28;;;20.52;65.43
48778;BME280;34578;0.000;0.000;2023-07-29T20:53:13;96319.78;;;20.43;64.98
48778;BME280;34578;0.000;0.000;2023-07-29T20:58:13;96351.16;;;20.39;64.50
48778;BME280;34578;0.000;0.000;2023-07-29T21:03:14;96356.31;;;20.35;64.50
48778;BME280;34578;0.000;0.000;2023-07-29T21:08:14;96352.97;;;20.33;64.37
48778;BME280;34578;0.000;0.000;2023-07-29T21:13:15;96352.13;;;20.33;64.03
48778;BME280;34578;0.000;0.000;2023-07-29T21:18:15;96356.31;;;20.37;65.10
48778;BME280;34578;0.000;0.000;2023-07-29T21:23:16;96346.75;;;20.52;68.88
48778;BME280;34578;0.000;0.000;2023-07-29T21:28:18;96344.19;;;20.55;66.28
48778;BME280;34578;0.000;0.000;2023-07-29T21:33:18;96343.47;;;20.45;65.24
48778;BME280;34578;0.000;0.000;2023-07-29T21:38:19;96355.44;;;20.38;64.21
48778;BME280;34578;0.000;0.000;2023-07-29T21:43:19;96351.28;;;20.34;63.89
48778;BME280;34578;0.000;0.000;2023-07-29T21:48:20;96347.06;;;20.33;63.86
48778;BME280;34578;0.000;0.000;2023-07-29T21:53:20;96348.75;;;20.31;63.86
48778;BME280;34578;0.000;0.000;2023-07-29T21:58:20;96355.56;;;20.29;63.49
48778;BME280;34578;0.000;0.000;2023-07-29T22:03:22;96354.50;;;20.46;68.56
48778;BME280;34578;0.000;0.000;2023-07-29T22:08:23;96356.91;;;20.53;68.70
48778;BME280;34578;0.000;0.000;2023-07-29T22:13:23;96362.94;;;20.49;65.69
48778;BME280;34578;0.000;0.000;2023-07-29T22:18:24;96356.25;;;20.39;64.55
48778;BME280;34578;0.000;0.000;2023-07-29T22:23:24;96349.53;;;20.36;64.28
48778;BME280;34578;0.000;0.000;2023-07-29T22:28:26;96357.28;;;20.27;64.02
48778;BME280;34578;0.000;0.000;2023-07-29T22:33:26;96364.84;;;20.31;64.14
48778;BME280;34578;0.000;0.000;2023-07-29T22:38:27;96382.66;;;20.31;64.02
48778;BME280;34578;0.000;0.000;2023-07-29T22:43:27;96388.53;;;20.35;65.76
48778;BME280;34578;0.000;0.000;2023-07-29T22:48:28;96385.75;;;20.52;68.92
48778;BME280;34578;0.000;0.000;2023-07-29T22:53:28;96367.03;;;20.56;66.75
48778;BME280;34578;0.000;0.000;2023-07-29T22:58:29;96368.81;;;20.51;65.25
48778;BME280;34578;0.000;0.000;2023-07-29T23:03:29;96365.53;;;20.43;65.45
48778;BME280;34578;0.000;0.000;2023-07-29T23:08:29;96372.31;;;20.44;66.61
48778;BME280;34578;0.000;0.000;2023-07-29T23:13:30;96364.69;;;20.43;66.29
48778;BME280;34578;0.000;0.000;2023-07-29T23:18:30;96377.44;;;20.42;65.05
48778;BME280;34578;0.000;0.000;2023-07-29T23:23:31;96369.81;;;20.42;65.58
48778;BME280;34578;0.000;0.000;2023-07-29T23:28:31;96368.03;;;20.48;66.93
48778;BME280;34578;0.000;0.000;2023-07-29T23:33:31;96368.72;;;20.57;68.26
48778;BME280;34578;0.000;0.000;2023-07-29T23:38:32;96392.47;;;20.59;66.64
48778;BME280;34578;0.000;0.000;2023-07-29T23:43:32;96371.31;;;20.53;66.65
48778;BME280;34578;0.000;0.000;2023-07-29T23:48:33;96377.28;;;20.52;67.40
48778;BME280;34578;0.000;0.000;2023-07-29T23:53:33;96379.06;;;20.45;66.06
48778;BME280;34578;0.000;0.000;2023-07-29T23:58:33;96374.03;;;20.42;65.58
